sensor_id;sensor_type;location;lat;lon;timestamp;pressure;altitude;pressure_sealevel;temperature;humidity
50590;BME280;36547;50.514;30.840;2023-08-06T00:00:38;99757.44;;;23.38;69.87
50590;BME280;36547;50.514;30.840;2023-08-06T00:01:40;99746.95;;;23.35;69.89
50590;BME280;36547;50.514;30.840;2023-08-06T00:02:43;99759.13;;;23.39;69.66
50590;BME280;36547;50.514;30.840;2023-08-06T00:03:46;99744.55;;;23.40;69.70
50590;BME280;36547;50.514;30.840;2023-08-06T00:04:48;99744.55;;;23.40;69.72
50590;BME280;36547;50.514;30.840;2023-08-06T00:05:51;99738.62;;;23.44;69.53
50590;BME280;36547;50.514;30.840;2023-08-06T00:06:54;99746.25;;;23.41;69.52
50590;BME280;36547;50.514;30.840;2023-08-06T00:07:56;99744.22;;;23.43;69.32
50590;BME280;36547;50.514;30.840;2023-08-06T00:09:00;99741.16;;;23.38;69.56
50590;BME280;36547;50.514;30.840;2023-08-06T00:10:04;99734.41;;;23.34;69.76
50590;BME280;36547;50.514;30.840;2023-08-06T00:11:06;99733.89;;;23.30;69.84
50590;BME280;36547;50.514;30.840;2023-08-06T00:12:09;99737.62;;;23.29;69.96
50590;BME280;36547;50.514;30.840;2023-08-06T00:13:12;99739.32;;;23.30;69.93
50590;BME280;36547;50.514;30.840;2023-08-06T00:14:15;99733.73;;;23.32;69.93
50590;BME280;36547;50.514;30.840;2023-08-06T00:15:17;99738.13;;;23.33;69.72
50590;BME280;36547;50.514;30.840;2023-08-06T00:16:20;99731.70;;;23.34;69.68
50590;BME280;36547;50.514;30.840;2023-08-06T00:17:22;99734.41;;;23.34;69.77
50590;BME280;36547;50.514;30.840;2023-08-06T00:18:24;99726.44;;;23.32;69.84
50590;BME280;36547;50.514;30.840;2023-08-06T00:19:27;99728.98;;;23.34;69.72
50590;BME280;36547;50.514;30.840;2023-08-06T00:20:30;99730.31;;;23.38;69.66
50590;BME280;36547;50.514;30.840;2023-08-06T00:21:32;99728.98;;;23.34;69.66
50590;BME280;36547;50.514;30.840;2023-08-06T00:22:36;99721.86;;;23.33;69.76
50590;BME280;36547;50.514;30.840;2023-08-06T00:23:39;99724.91;;;23.30;69.78
50590;BME280;36547;50.514;30.840;2023-08-06T00:24:42;99725.59;;;23.32;69.77
50590;BME280;36547;50.514;30.840;2023-08-06T00:25:44;99725.59;;;23.32;69.79
50590;BME280;36547;50.514;30.840;2023-08-06T00:26:47;99726.27;;;23.25;69.84
50590;BME280;36547;50.514;30.840;2023-08-06T00:27:49;99729.50;;;23.21;70.13
50590;BME280;36547;50.514;30.840;2023-08-06T00:28:51;99728.30;;;23.23;69.97
50590;BME280;36547;50.514;30.840;2023-08-06T00:29:54;99723.41;;;23.19;70.03
50590;BME280;36547;50.514;30.840;2023-08-06T00:30:57;99730.69;;;23.18;70.08
50590;BME280;36547;50.514;30.840;2023-08-06T00:31:59;99728.31;;;23.15;70.24
50590;BME280;36547;50.514;30.840;2023-08-06T00:33:02;99725.59;;;23.15;70.05
50590;BME280;36547;50.514;30.840;2023-08-06T00:34:05;99725.27;;;23.18;70.09
50590;BME280;36547;50.514;30.840;2023-08-06T00:35:08;99719.84;;;23.18;70.18
50590;BME280;36547;50.514;30.840;2023-08-06T00:36:10;99720.69;;;23.19;70.09
50590;BME280;36547;50.514;30.840;2023-08-06T00:37:13;99724.93;;;23.21;69.93
50590;BME280;36547;50.514;30.840;2023-08-06T00:38:15;99722.02;;;23.23;69.87
50590;BME280;36547;50.514;30.840;2023-08-06T00:39:17;99724.56;;;23.24;69.85
50590;BME280;36547;50.514;30.840;2023-08-06T00:40:20;99724.93;;;23.21;69.87
50590;BME280;36547;50.514;30.840;2023-08-06T00:41:23;99724.56;;;23.24;69.73
50590;BME280;36547;50.514;30.840;2023-08-06T00:42:25;99720.16;;;23.23;69.66
50590;BME280;36547;50.514;30.840;2023-08-06T00:43:28;99720.50;;;23.28;69.63
50590;BME280;36547;50.514;30.840;2023-08-06T00:44:30;99719.48;;;23.30;69.53
50590;BME280;36547;50.514;30.840;2023-08-06T00:45:35;99720.84;;;23.25;69.63
50590;BME280;36547;50.514;30.840;2023-08-06T00:46:38;99719.66;;;23.28;69.52
50590;BME280;36547;50.514;30.840;2023-08-06T00:47:41;99720.16;;;23.23;69.75
50590;BME280;36547;50.514;30.840;2023-08-06T00:48:44;99719.14;;;23.24;69.58
50590;BME280;36547;50.514;30.840;2023-08-06T00:49:47;99719.33;;;23.15;69.68
50590;BME280;36547;50.514;30.840;2023-08-06T00:50:50;99723.05;;;23.14;69.72
50590;BME280;36547;50.514;30.840;2023-08-06T00:51:53;99723.05;;;23.14;69.75
50590;BME280;36547;50.514;30.840;2023-08-06T00:52:57;99717.48;;;23.07;70.00
50590;BME280;36547;50.514;30.840;2023-08-06T00:54:01;99713.24;;;23.05;70.01
50590;BME280;36547;50.514;30.840;2023-08-06T00:55:05;99711.03;;;23.00;70.16
50590;BME280;36547;50.514;30.840;2023-08-06T00:56:09;99716.12;;;23.03;70.05
50590;BME280;36547;50.514;30.840;2023-08-06T00:57:11;99713.23;;;22.97;70.35
50590;BME280;36547;50.514;30.840;2023-08-06T00:58:15;99714.08;;;22.97;70.44
50590;BME280;36547;50.514;30.840;2023-08-06T00:59:21;99707.64;;;22.98;70.38
50590;BME280;36547;50.514;30.840;2023-08-06T01:00:27;99701.70;;;22.95;70.44
50590;BME280;36547;50.514;30.840;2023-08-06T01:01:35;99723.22;;;22.96;70.32
50590;BME280;36547;50.514;30.840;2023-08-06T01:02:39;99717.12;;;22.94;70.33
50590;BME280;36547;50.514;30.840;2023-08-06T01:03:46;99719.50;;;22.97;70.29
50590;BME280;36547;50.514;30.840;2023-08-06T01:04:53;99721.20;;;22.90;70.12
50590;BME280;36547;50.514;30.840;2023-08-06T01:05:59;99716.63;;;22.90;70.22
50590;BME280;36547;50.514;30.840;2023-08-06T01:08:48;99711.70;;;23.10;70.30
50590;BME280;36547;50.514;30.840;2023-08-06T01:13:00;99709.84;;;23.19;70.12
50590;BME280;36547;50.514;30.840;2023-08-06T01:15:19;99704.27;;;23.04;69.99
50590;BME280;36547;50.514;30.840;2023-08-06T01:16:24;99701.87;;;23.09;69.76
50590;BME280;36547;50.514;30.840;2023-08-06T01:17:27;99702.55;;;23.11;69.51
50590;BME280;36547;50.514;30.840;2023-08-06T01:18:32;99708.31;;;23.16;69.44
50590;BME280;36547;50.514;30.840;2023-08-06T01:19:36;99706.12;;;23.20;69.17
50590;BME280;36547;50.514;30.840;2023-08-06T01:20:38;99703.58;;;23.18;69.38
50590;BME280;36547;50.514;30.840;2023-08-06T01:21:41;99711.37;;;23.21;69.25
50590;BME280;36547;50.514;30.840;2023-08-06T01:22:43;99701.55;;;23.20;69.15
50590;BME280;36547;50.514;30.840;2023-08-06T01:23:46;99705.75;;;23.23;69.14
50590;BME280;36547;50.514;30.840;2023-08-06T01:24:50;99699.52;;;23.22;69.23
50590;BME280;36547;50.514;30.840;2023-08-06T01:27:44;99708.66;;;23.21;69.42
50590;BME280;36547;50.514;30.840;2023-08-06T01:31:33;99703.55;;;23.26;69.34
50590;BME280;36547;50.514;30.840;2023-08-06T01:32:37;99700.54;;;23.05;69.64
50590;BME280;36547;50.514;30.840;2023-08-06T01:33:43;99697.83;;;23.05;69.77
50590;BME280;36547;50.514;30.840;2023-08-06T01:34:48;99702.23;;;23.06;69.65
50590;BME280;36547;50.514;30.840;2023-08-06T01:35:53;99701.55;;;23.04;69.70
50590;BME280;36547;50.514;30.840;2023-08-06T01:36:58;99699.01;;;23.03;69.66
50590;BME280;36547;50.514;30.840;2023-08-06T01:38:02;99703.25;;;23.05;69.63
50590;BME280;36547;50.514;30.840;2023-08-06T01:39:06;99691.72;;;23.03;69.64
50590;BME280;36547;50.514;30.840;2023-08-06T01:40:12;99699.86;;;23.03;69.69
50590;BME280;36547;50.514;30.840;2023-08-06T01:41:15;99697.31;;;23.02;69.67
50590;BME280;36547;50.514;30.840;2023-08-06T01:42:18;99700.54;;;23.05;69.63
50590;BME280;36547;50.514;30.840;2023-08-06T01:43:21;99693.59;;;23.03;69.52
50590;BME280;36547;50.514;30.840;2023-08-06T01:44:24;99689.34;;;23.00;69.71
50590;BME280;36547;50.514;30.840;2023-08-06T01:45:27;99692.39;;;22.97;69.68
50590;BME280;36547;50.514;30.840;2023-08-06T01:46:30;99693.41;;;22.96;69.68
50590;BME280;36547;50.514;30.840;2023-08-06T01:47:34;99685.64;;;22.93;69.77
50590;BME280;36547;50.514;30.840;2023-08-06T01:48:37;99689.53;;;22.90;70.01
50590;BME280;36547;50.514;30.840;2023-08-06T01:49:39;99700.54;;;22.89;70.08
50590;BME280;36547;50.514;30.840;2023-08-06T01:50:42;99689.02;;;22.87;70.03
50590;BME280;36547;50.514;30.840;2023-08-06T01:51:44;99687.48;;;22.84;70.17
50590;BME280;36547;50.514;30.840;2023-08-06T01:52:47;99683.92;;;22.84;70.19
50590;BME280;36547;50.514;30.840;2023-08-06T01:53:49;99685.30;;;22.88;69.84
50590;BME280;36547;50.514;30.840;2023-08-06T01:54:54;99686.98;;;22.89;69.94
50590;BME280;36547;50.514;30.840;2023-08-06T01:55:57;99686.48;;;22.94;69.90
50590;BME280;36547;50.514;30.840;2023-08-06T01:56:59;99681.06;;;22.94;69.91
50590;BME280;36547;50.514;30.840;2023-08-06T01:58:01;99690.38;;;22.91;69.95
50590;BME280;36547;50.514;30.840;2023-08-06T01:59:04;99682.25;;;22.91;69.83
50590;BME280;36547;50.514;30.840;2023-08-06T02:00:07;99685.97;;;22.90;69.69
50590;BME280;36547;50.514;30.840;2023-08-06T02:01:17;99684.95;;;22.91;69.70
50590;BME280;36547;50.514;30.840;2023-08-06T02:02:20;99688.69;;;22.90;69.73
50590;BME280;36547;50.514;30.840;2023-08-06T02:03:22;99678.86;;;22.89;69.83
50590;BME280;36547;50.514;30.840;2023-08-06T02:04:24;99686.98;;;22.89;69.86
50590;BME280;36547;50.514;30.840;2023-08-06T02:05:27;99675.96;;;22.82;69.89
50590;BME280;36547;50.514;30.840;2023-08-06T02:06:30;99678.51;;;22.84;69.95
50590;BME280;36547;50.514;30.840;2023-08-06T02:07:32;99676.81;;;22.83;69.99
50590;BME280;36547;50.514;30.840;2023-08-06T02:08:35;99674.43;;;22.80;70.07
50590;BME280;36547;50.514;30.840;2023-08-06T02:09:37;99681.91;;;22.78;70.03
50590;BME280;36547;50.514;30.840;2023-08-06T02:10:39;99673.78;;;22.78;70.10
50590;BME280;36547;50.514;30.840;2023-08-06T02:11:42;99663.24;;;22.75;70.21
50590;BME280;36547;50.514;30.840;2023-08-06T02:12:45;99677.80;;;22.74;70.32
50590;BME280;36547;50.514;30.840;2023-08-06T02:13:48;99673.95;;;22.76;70.23
50590;BME280;36547;50.514;30.840;2023-08-06T02:14:52;99678.81;;;22.73;70.29
50590;BME280;36547;50.514;30.840;2023-08-06T02:15:55;99671.70;;;22.72;70.41
50590;BME280;36547;50.514;30.840;2023-08-06T02:16:57;99673.56;;;22.71;70.25
50590;BME280;36547;50.514;30.840;2023-08-06T02:18:00;99678.30;;;22.69;70.46
50590;BME280;36547;50.514;30.840;2023-08-06T02:19:03;99678.47;;;22.68;70.46
50590;BME280;36547;50.514;30.840;2023-08-06T02:20:06;99674.58;;;22.70;70.39
50590;BME280;36547;50.514;30.840;2023-08-06T02:21:09;99675.42;;;22.71;70.30
50590;BME280;36547;50.514;30.840;2023-08-06T02:22:12;99675.27;;;22.72;70.18
50590;BME280;36547;50.514;30.840;2023-08-06T02:23:14;99677.97;;;22.72;70.27
50590;BME280;36547;50.514;30.840;2023-08-06T02:24:17;99682.77;;;22.78;69.96
50590;BME280;36547;50.514;30.840;2023-08-06T02:25:19;99675.48;;;22.79;69.97
50590;BME280;36547;50.514;30.840;2023-08-06T02:26:22;99675.11;;;22.82;69.94
50590;BME280;36547;50.514;30.840;2023-08-06T02:27:24;99678.84;;;22.81;69.89
50590;BME280;36547;50.514;30.840;2023-08-06T02:28:27;99680.53;;;22.82;69.68
50590;BME280;36547;50.514;30.840;2023-08-06T02:29:29;99676.81;;;22.83;69.79
50590;BME280;36547;50.514;30.840;2023-08-06T02:30:32;99678.51;;;22.84;69.73
50590;BME280;36547;50.514;30.840;2023-08-06T02:31:34;99680.53;;;22.82;69.76
50590;BME280;36547;50.514;30.840;2023-08-06T02:32:37;99686.97;;;22.81;69.95
50590;BME280;36547;50.514;30.840;2023-08-06T02:33:40;99683.77;;;22.77;69.96
50590;BME280;36547;50.514;30.840;2023-08-06T02:34:42;99693.40;;;22.80;69.94
50590;BME280;36547;50.514;30.840;2023-08-06T02:35:45;99691.52;;;22.72;70.15
50590;BME280;36547;50.514;30.840;2023-08-06T02:36:48;99688.81;;;22.72;70.18
50590;BME280;36547;50.514;30.840;2023-08-06T02:37:50;99681.86;;;22.70;70.26
50590;BME280;36547;50.514;30.840;2023-08-06T02:38:52;99686.59;;;22.68;70.35
50590;BME280;36547;50.514;30.840;2023-08-06T02:39:55;99688.45;;;22.67;70.31
50590;BME280;36547;50.514;30.840;2023-08-06T02:40:58;99685.58;;;22.69;70.08
50590;BME280;36547;50.514;30.840;2023-08-06T02:42:00;99685.58;;;22.69;70.14
50590;BME280;36547;50.514;30.840;2023-08-06T02:43:05;99683.22;;;22.74;69.93
50590;BME280;36547;50.514;30.840;2023-08-06T02:44:07;99686.27;;;22.71;70.11
50590;BME280;36547;50.514;30.840;2023-08-06T02:45:10;99694.75;;;22.76;69.92
50590;BME280;36547;50.514;30.840;2023-08-06T02:46:14;99688.97;;;22.71;70.06
50590;BME280;36547;50.514;30.840;2023-08-06T02:47:17;99686.95;;;22.73;70.10
50590;BME280;36547;50.514;30.840;2023-08-06T02:48:19;99685.94;;;22.74;70.04
50590;BME280;36547;50.514;30.840;2023-08-06T02:49:22;99687.96;;;22.72;70.09
50590;BME280;36547;50.514;30.840;2023-08-06T02:50:25;99684.92;;;22.75;70.11
50590;BME280;36547;50.514;30.840;2023-08-06T02:51:27;99686.27;;;22.71;70.13
50590;BME280;36547;50.514;30.840;2023-08-06T02:52:30;99684.73;;;22.68;70.21
50590;BME280;36547;50.514;30.840;2023-08-06T02:53:33;99686.27;;;22.71;70.10
50590;BME280;36547;50.514;30.840;2023-08-06T02:54:37;99685.09;;;22.73;69.94
50590;BME280;36547;50.514;30.840;2023-08-06T02:56:55;99680.55;;;22.90;69.88
50590;BME280;36547;50.514;30.840;2023-08-06T02:58:00;99686.27;;;22.71;70.15
50590;BME280;36547;50.514;30.840;2023-08-06T02:59:03;99689.49;;;22.74;70.09
50590;BME280;36547;50.514;30.840;2023-08-06T03:00:11;99689.20;;;22.77;69.92
50590;BME280;36547;50.514;30.840;2023-08-06T03:01:14;99684.62;;;22.78;70.06
50590;BME280;36547;50.514;30.840;2023-08-06T03:02:21;99687.50;;;22.76;69.95
50590;BME280;36547;50.514;30.840;2023-08-06T03:03:35;99682.92;;;22.77;69.85
50590;BME280;36547;50.514;30.840;2023-08-06T03:04:39;99689.88;;;22.79;69.93
50590;BME280;36547;50.514;30.840;2023-08-06T03:05:51;99690.04;;;22.78;70.05
50590;BME280;36547;50.514;30.840;2023-08-06T03:06:50;99683.77;;;22.77;69.92
50590;BME280;36547;50.514;30.840;2023-08-06T03:07:53;99682.92;;;22.77;69.98
50590;BME280;36547;50.514;30.840;2023-08-06T03:08:57;99682.92;;;22.77;69.85
50590;BME280;36547;50.514;30.840;2023-08-06T03:10:00;99690.04;;;22.78;70.03
50590;BME280;36547;50.514;30.840;2023-08-06T03:11:03;99690.34;;;22.75;70.01
50590;BME280;36547;50.514;30.840;2023-08-06T03:13:00;99680.20;;;22.85;69.83
50590;BME280;36547;50.514;30.840;2023-08-06T03:14:03;99686.31;;;22.79;70.00
50590;BME280;36547;50.514;30.840;2023-08-06T03:15:06;99688.34;;;22.77;69.88
50590;BME280;36547;50.514;30.840;2023-08-06T03:16:09;99691.05;;;22.77;70.00
50590;BME280;36547;50.514;30.840;2023-08-06T03:17:12;99691.73;;;22.79;70.09
50590;BME280;36547;50.514;30.840;2023-08-06T03:18:15;99681.91;;;22.78;70.17
50590;BME280;36547;50.514;30.840;2023-08-06T03:19:18;99680.34;;;22.75;70.14
50590;BME280;36547;50.514;30.840;2023-08-06T03:20:20;99679.50;;;22.75;70.04
50590;BME280;36547;50.514;30.840;2023-08-06T03:21:24;99683.77;;;22.77;69.92
50590;BME280;36547;50.514;30.840;2023-08-06T03:22:27;99684.62;;;22.78;70.04
50590;BME280;36547;50.514;30.840;2023-08-06T03:23:29;99686.31;;;22.79;69.93
50590;BME280;36547;50.514;30.840;2023-08-06T03:24:32;99678.35;;;22.77;70.17
50590;BME280;36547;50.514;30.840;2023-08-06T03:25:35;99678.84;;;22.81;70.13
50590;BME280;36547;50.514;30.840;2023-08-06T03:26:38;99679.20;;;22.78;70.13
50590;BME280;36547;50.514;30.840;2023-08-06T03:27:41;99668.66;;;22.75;70.20
50590;BME280;36547;50.514;30.840;2023-08-06T03:28:46;99671.08;;;22.78;70.33
50590;BME280;36547;50.514;30.840;2023-08-06T03:29:49;99667.34;;;22.79;70.29
50590;BME280;36547;50.514;30.840;2023-08-06T03:32:17;99671.72;;;22.96;70.26
50590;BME280;36547;50.514;30.840;2023-08-06T03:33:19;99680.90;;;22.79;70.48
50590;BME280;36547;50.514;30.840;2023-08-06T03:34:21;99672.41;;;22.82;70.36
50590;BME280;36547;50.514;30.840;2023-08-06T03:35:24;99675.46;;;22.87;70.29
50590;BME280;36547;50.514;30.840;2023-08-06T03:36:27;99659.88;;;22.89;70.07
50590;BME280;36547;50.514;30.840;2023-08-06T03:37:30;99668.70;;;22.91;70.06
50590;BME280;36547;50.514;30.840;2023-08-06T03:38:33;99666.16;;;22.89;69.95
50590;BME280;36547;50.514;30.840;2023-08-06T03:39:37;99673.75;;;22.94;69.93
50590;BME280;36547;50.514;30.840;2023-08-06T03:40:40;99669.38;;;22.93;70.13
50590;BME280;36547;50.514;30.840;2023-08-06T03:41:43;99669.86;;;22.97;70.01
50590;BME280;36547;50.514;30.840;2023-08-06T03:42:46;99662.91;;;22.94;69.97
50590;BME280;36547;50.514;30.840;2023-08-06T03:43:49;99667.14;;;22.97;70.02
50590;BME280;36547;50.514;30.840;2023-08-06T03:44:53;99665.12;;;22.99;70.15
50590;BME280;36547;50.514;30.840;2023-08-06T03:45:56;99667.66;;;23.00;70.04
50590;BME280;36547;50.514;30.840;2023-08-06T03:46:58;99667.83;;;22.99;70.09
50590;BME280;36547;50.514;30.840;2023-08-06T03:48:01;99669.36;;;23.01;70.05
50590;BME280;36547;50.514;30.840;2023-08-06T03:49:04;99665.80;;;23.01;70.05
50590;BME280;36547;50.514;30.840;2023-08-06T03:50:07;99668.00;;;23.05;70.01
50590;BME280;36547;50.514;30.840;2023-08-06T03:51:10;99666.14;;;23.06;69.94
50590;BME280;36547;50.514;30.840;2023-08-06T03:52:13;99662.58;;;23.05;69.76
50590;BME280;36547;50.514;30.840;2023-08-06T03:53:15;99665.61;;;23.10;69.85
50590;BME280;36547;50.514;30.840;2023-08-06T03:54:18;99666.63;;;23.09;69.96
50590;BME280;36547;50.514;30.840;2023-08-06T03:55:21;99670.02;;;23.11;70.04
50590;BME280;36547;50.514;30.840;2023-08-06T03:56:24;99664.59;;;23.11;70.37
50590;BME280;36547;50.514;30.840;2023-08-06T03:57:27;99662.56;;;23.13;70.22
50590;BME280;36547;50.514;30.840;2023-08-06T03:58:30;99663.23;;;23.15;70.07
50590;BME280;36547;50.514;30.840;2023-08-06T03:59:33;99651.89;;;23.20;69.68
50590;BME280;36547;50.514;30.840;2023-08-06T04:00:36;99666.13;;;23.22;69.91
50590;BME280;36547;50.514;30.840;2023-08-06T04:01:39;99663.21;;;23.23;69.98
50590;BME280;36547;50.514;30.840;2023-08-06T04:02:42;99659.48;;;23.24;70.06
50590;BME280;36547;50.514;30.840;2023-08-06T04:03:45;99662.88;;;23.26;70.14
50590;BME280;36547;50.514;30.840;2023-08-06T04:04:49;99658.47;;;23.25;70.29
50590;BME280;36547;50.514;30.840;2023-08-06T04:05:51;99649.48;;;23.25;70.21
50590;BME280;36547;50.514;30.840;2023-08-06T04:06:55;99655.75;;;23.25;70.33
50590;BME280;36547;50.514;30.840;2023-08-06T04:07:57;99649.14;;;23.28;70.09
50590;BME280;36547;50.514;30.840;2023-08-06T04:09:00;99649.65;;;23.32;70.10
50590;BME280;36547;50.514;30.840;2023-08-06T04:10:04;99649.82;;;23.30;69.79
50590;BME280;36547;50.514;30.840;2023-08-06T04:11:06;99643.03;;;23.34;69.85
50590;BME280;36547;50.514;30.840;2023-08-06T04:12:09;99647.27;;;23.37;70.00
50590;BME280;36547;50.514;30.840;2023-08-06T04:13:11;99650.63;;;23.39;69.78
50590;BME280;36547;50.514;30.840;2023-08-06T04:14:14;99652.33;;;23.40;69.83
50590;BME280;36547;50.514;30.840;2023-08-06T04:15:16;99658.59;;;23.40;69.77
50590;BME280;36547;50.514;30.840;2023-08-06T04:16:18;99655.72;;;23.42;69.74
50590;BME280;36547;50.514;30.840;2023-08-06T04:17:22;99652.83;;;23.43;69.83
50590;BME280;36547;50.514;30.840;2023-08-06T04:18:25;99651.31;;;23.41;69.72
50590;BME280;36547;50.514;30.840;2023-08-06T04:19:28;99654.53;;;23.44;69.70
50590;BME280;36547;50.514;30.840;2023-08-06T04:20:30;99655.38;;;23.45;69.94
50590;BME280;36547;50.514;30.840;2023-08-06T04:21:33;99656.90;;;23.47;69.76
50590;BME280;36547;50.514;30.840;2023-08-06T04:22:36;99648.77;;;23.47;69.66
50590;BME280;36547;50.514;30.840;2023-08-06T04:23:39;99647.91;;;23.47;69.90
50590;BME280;36547;50.514;30.840;2023-08-06T04:24:43;99649.95;;;23.45;69.81
50590;BME280;36547;50.514;30.840;2023-08-06T04:25:46;99648.93;;;23.46;69.87
50590;BME280;36547;50.514;30.840;2023-08-06T04:26:49;99655.03;;;23.48;70.07
50590;BME280;36547;50.514;30.840;2023-08-06T04:27:51;99649.61;;;23.48;70.25
50590;BME280;36547;50.514;30.840;2023-08-06T04:28:54;99647.91;;;23.47;69.93
50590;BME280;36547;50.514;30.840;2023-08-06T04:29:57;99651.64;;;23.46;70.24
50590;BME280;36547;50.514;30.840;2023-08-06T04:31:02;99649.61;;;23.48;70.40
50590;BME280;36547;50.514;30.840;2023-08-06T04:32:08;99640.80;;;23.46;70.63
50590;BME280;36547;50.514;30.840;2023-08-06T04:33:11;99642.14;;;23.50;70.28
50590;BME280;36547;50.514;30.840;2023-08-06T04:34:15;99628.58;;;23.50;70.16
50590;BME280;36547;50.514;30.840;2023-08-06T04:35:17;99646.38;;;23.52;70.17
50590;BME280;36547;50.514;30.840;2023-08-06T04:36:20;99644.52;;;23.53;70.32
50590;BME280;36547;50.514;30.840;2023-08-06T04:37:22;99636.88;;;23.56;70.59
50590;BME280;36547;50.514;30.840;2023-08-06T04:38:25;99635.69;;;23.59;70.34
50590;BME280;36547;50.514;30.840;2023-08-06T04:39:28;99637.04;;;23.63;69.99
50590;BME280;36547;50.514;30.840;2023-08-06T04:40:34;99638.73;;;23.64;69.91
50590;BME280;36547;50.514;30.840;2023-08-06T04:41:36;99638.36;;;23.67;69.91
50590;BME280;36547;50.514;30.840;2023-08-06T04:42:40;99641.75;;;23.69;69.93
50590;BME280;36547;50.514;30.840;2023-08-06T04:43:42;99637.67;;;23.73;69.94
50590;BME280;36547;50.514;30.840;2023-08-06T04:44:46;99641.05;;;23.75;69.31
50590;BME280;36547;50.514;30.840;2023-08-06T04:45:50;99637.32;;;23.76;69.50
50590;BME280;36547;50.514;30.840;2023-08-06T04:46:54;99633.59;;;23.77;69.20
50590;BME280;36547;50.514;30.840;2023-08-06T04:47:56;99637.82;;;23.80;69.39
50590;BME280;36547;50.514;30.840;2023-08-06T04:48:59;99634.05;;;23.81;69.39
50590;BME280;36547;50.514;30.840;2023-08-06T04:50:01;99630.32;;;23.82;69.56
50590;BME280;36547;50.514;30.840;2023-08-06T04:51:03;99633.70;;;23.84;69.46
50590;BME280;36547;50.514;30.840;2023-08-06T04:52:06;99627.08;;;23.86;69.25
50590;BME280;36547;50.514;30.840;2023-08-06T04:53:08;99628.78;;;23.87;69.04
50590;BME280;36547;50.514;30.840;2023-08-06T04:54:11;99628.78;;;23.87;69.01
50590;BME280;36547;50.514;30.840;2023-08-06T04:55:13;99614.19;;;23.88;69.04
50590;BME280;36547;50.514;30.840;2023-08-06T04:56:15;99619.27;;;23.91;68.98
50590;BME280;36547;50.514;30.840;2023-08-06T04:57:18;99615.53;;;23.92;69.04
50590;BME280;36547;50.514;30.840;2023-08-06T04:58:20;99624.34;;;23.94;69.25
50590;BME280;36547;50.514;30.840;2023-08-06T04:59:23;99615.35;;;23.94;69.08
50590;BME280;36547;50.514;30.840;2023-08-06T05:00:25;99612.43;;;23.95;68.74
50590;BME280;36547;50.514;30.840;2023-08-06T05:01:28;99618.53;;;23.97;68.92
50590;BME280;36547;50.514;30.840;2023-08-06T05:02:30;99611.06;;;24.00;68.99
50590;BME280;36547;50.514;30.840;2023-08-06T05:03:33;99609.02;;;24.02;68.90
50590;BME280;36547;50.514;30.840;2023-08-06T05:04:35;99610.53;;;24.04;68.63
50590;BME280;36547;50.514;30.840;2023-08-06T05:05:42;99613.74;;;24.08;68.76
50590;BME280;36547;50.514;30.840;2023-08-06T05:06:44;99606.23;;;24.10;68.37
50590;BME280;36547;50.514;30.840;2023-08-06T05:07:49;99606.91;;;24.12;68.75
50590;BME280;36547;50.514;30.840;2023-08-06T05:08:52;99606.73;;;24.13;68.38
50590;BME280;36547;50.514;30.840;2023-08-06T05:09:55;99611.98;;;24.15;68.27
50590;BME280;36547;50.514;30.840;2023-08-06T05:10:59;99606.38;;;24.16;67.62
50590;BME280;36547;50.514;30.840;2023-08-06T05:12:03;99614.34;;;24.18;67.63
50590;BME280;36547;50.514;30.840;2023-08-06T05:13:06;99606.69;;;24.21;67.89
50590;BME280;36547;50.514;30.840;2023-08-06T05:14:08;99608.20;;;24.24;67.85
50590;BME280;36547;50.514;30.840;2023-08-06T05:15:11;99607.86;;;24.27;67.72
50590;BME280;36547;50.514;30.840;2023-08-06T05:16:16;99597.66;;;24.29;67.03
50590;BME280;36547;50.514;30.840;2023-08-06T05:17:18;99601.72;;;24.33;66.43
50590;BME280;36547;50.514;30.840;2023-08-06T05:18:20;99601.36;;;24.36;66.80
50590;BME280;36547;50.514;30.840;2023-08-06T05:19:23;99607.25;;;24.40;67.25
50590;BME280;36547;50.514;30.840;2023-08-06T05:20:25;99597.89;;;24.42;66.85
50590;BME280;36547;50.514;30.840;2023-08-06T05:21:27;99593.98;;;24.45;67.03
50590;BME280;36547;50.514;30.840;2023-08-06T05:22:30;99593.80;;;24.46;67.06
50590;BME280;36547;50.514;30.840;2023-08-06T05:23:32;99591.57;;;24.50;66.91
50590;BME280;36547;50.514;30.840;2023-08-06T05:24:35;99588.67;;;24.51;66.56
50590;BME280;36547;50.514;30.840;2023-08-06T05:25:38;99592.02;;;24.53;66.89
50590;BME280;36547;50.514;30.840;2023-08-06T05:26:41;99585.39;;;24.56;66.89
50590;BME280;36547;50.514;30.840;2023-08-06T05:27:44;99589.61;;;24.58;67.03
50590;BME280;36547;50.514;30.840;2023-08-06T05:28:47;99585.52;;;24.62;66.90
50590;BME280;36547;50.514;30.840;2023-08-06T05:29:49;99584.48;;;24.63;66.15
50590;BME280;36547;50.514;30.840;2023-08-06T05:30:52;99592.28;;;24.66;66.50
50590;BME280;36547;50.514;30.840;2023-08-06T05:31:55;99587.48;;;24.68;66.24
50590;BME280;36547;50.514;30.840;2023-08-06T05:32:58;99585.42;;;24.71;66.39
50590;BME280;36547;50.514;30.840;2023-08-06T05:34:00;99589.47;;;24.75;66.54
50590;BME280;36547;50.514;30.840;2023-08-06T05:35:03;99589.11;;;24.78;66.37
50590;BME280;36547;50.514;30.840;2023-08-06T05:36:06;99576.18;;;24.80;66.36
50590;BME280;36547;50.514;30.840;2023-08-06T05:37:09;99582.91;;;24.84;65.89
50590;BME280;36547;50.514;30.840;2023-08-06T05:38:12;99586.30;;;24.86;65.71
50590;BME280;36547;50.514;30.840;2023-08-06T05:39:15;99576.75;;;24.90;65.58
50590;BME280;36547;50.514;30.840;2023-08-06T05:40:17;99583.55;;;24.94;65.21
50590;BME280;36547;50.514;30.840;2023-08-06T05:41:21;99580.44;;;24.97;64.75
50590;BME280;36547;50.514;30.840;2023-08-06T05:42:23;99575.66;;;24.99;65.41
50590;BME280;36547;50.514;30.840;2023-08-06T05:43:25;99576.14;;;25.03;65.64
50590;BME280;36547;50.514;30.840;2023-08-06T05:44:28;99571.18;;;25.06;65.80